createdAt,value
2017-12-19T00:00:25.787Z,0
2017-12-19T00:01:26.392Z,0
2017-12-19T00:02:26.996Z,0
2017-12-19T00:03:27.590Z,0
2017-12-19T00:04:28.178Z,0
2017-12-19T00:05:28.776Z,0
2017-12-19T00:06:29.377Z,0
2017-12-19T00:07:29.979Z,0
2017-12-19T00:08:30.565Z,0
2017-12-19T00:09:31.167Z,0
2017-12-19T00:10:31.757Z,0
2017-12-19T00:11:32.360Z,0
2017-12-19T00:12:32.967Z,0
2017-12-19T00:13:33.576Z,0
2017-12-19T00:14:34.167Z,0
2017-12-19T00:15:34.765Z,0
2017-12-19T00:16:35.370Z,0
2017-12-19T00:17:35.982Z,0
2017-12-19T00:18:36.592Z,0
2017-12-19T00:19:37.202Z,0
2017-12-19T00:20:37.797Z,0
2017-12-19T00:21:38.391Z,0
2017-12-19T00:22:38.992Z,0
2017-12-19T00:23:39.595Z,0
2017-12-19T00:24:40.193Z,0
2017-12-19T00:25:40.795Z,0
2017-12-19T00:26:41.384Z,0
2017-12-19T00:27:41.976Z,0
2017-12-19T00:28:42.580Z,0
2017-12-19T00:29:43.165Z,0
2017-12-19T00:30:43.770Z,0
2017-12-19T00:31:44.359Z,0
2017-12-19T00:32:44.955Z,0
2017-12-19T00:33:45.550Z,0
2017-12-19T00:34:46.148Z,0
2017-12-19T00:35:46.741Z,0
2017-12-19T00:36:47.351Z,0
2017-12-19T00:37:47.955Z,0
2017-12-19T00:38:48.557Z,0
2017-12-19T00:39:49.165Z,0
2017-12-19T00:40:49.758Z,0
2017-12-19T00:41:50.355Z,0
2017-12-19T00:42:50.954Z,0
2017-12-19T00:43:51.562Z,0
2017-12-19T00:44:52.158Z,0
2017-12-19T00:45:52.746Z,0
2017-12-19T00:46:53.333Z,0
2017-12-19T00:47:53.934Z,0
2017-12-19T00:48:54.529Z,0
2017-12-19T00:49:55.117Z,0
2017-12-19T00:50:55.706Z,0
2017-12-19T00:51:56.304Z,0
2017-12-19T00:52:56.896Z,0
2017-12-19T00:53:57.490Z,0
2017-12-19T00:54:58.088Z,0
2017-12-19T00:55:58.683Z,0
2017-12-19T00:56:59.292Z,0
2017-12-19T00:57:59.881Z,0
2017-12-19T00:59:00.479Z,0
2017-12-19T01:00:01.074Z,0
2017-12-19T01:01:01.696Z,0
2017-12-19T01:02:02.315Z,0
2017-12-19T01:03:02.918Z,0
2017-12-19T01:04:03.505Z,0
2017-12-19T01:05:04.094Z,0
2017-12-19T01:06:04.693Z,0
2017-12-19T01:07:05.287Z,0
2017-12-19T01:08:05.883Z,0
2017-12-19T01:09:06.483Z,0
2017-12-19T01:10:07.084Z,0
2017-12-19T01:11:07.688Z,0
2017-12-19T01:12:08.281Z,0
2017-12-19T01:13:08.885Z,0
2017-12-19T01:14:09.479Z,0
2017-12-19T01:15:10.092Z,0
2017-12-19T01:16:10.701Z,0
2017-12-19T01:17:11.310Z,0
2017-12-19T01:18:11.908Z,0
2017-12-19T01:19:12.501Z,0
2017-12-19T01:20:13.096Z,0
2017-12-19T01:21:13.715Z,0
2017-12-19T01:22:14.307Z,0
2017-12-19T01:23:14.905Z,0
2017-12-19T01:24:15.512Z,0
2017-12-19T01:25:16.102Z,0
2017-12-19T01:26:16.689Z,0
2017-12-19T01:27:17.283Z,0
2017-12-19T01:28:17.892Z,0
2017-12-19T01:29:18.499Z,0
2017-12-19T01:30:19.113Z,0
2017-12-19T01:31:19.730Z,0
2017-12-19T01:32:20.330Z,0
2017-12-19T01:33:20.928Z,0
2017-12-19T01:34:21.536Z,0
2017-12-19T01:35:22.123Z,0
2017-12-19T01:36:22.720Z,0
2017-12-19T01:37:23.329Z,0
2017-12-19T01:38:23.932Z,0
2017-12-19T01:39:24.527Z,0
2017-12-19T01:40:25.117Z,0
2017-12-19T01:41:25.715Z,0
2017-12-19T01:42:26.316Z,0
2017-12-19T01:43:26.917Z,0
2017-12-19T01:44:27.522Z,0
2017-12-19T01:45:28.132Z,0
2017-12-19T01:46:28.742Z,0
2017-12-19T01:47:29.345Z,0
2017-12-19T01:48:29.936Z,0
2017-12-19T01:49:30.531Z,0
2017-12-19T01:50:31.122Z,0
2017-12-19T01:51:31.727Z,0
2017-12-19T01:52:32.338Z,0
2017-12-19T01:53:32.945Z,0
2017-12-19T01:54:33.545Z,0
2017-12-19T01:55:34.137Z,0
2017-12-19T01:56:34.732Z,0
2017-12-19T01:57:35.324Z,0
2017-12-19T01:58:35.925Z,0
2017-12-19T01:59:36.531Z,0
2017-12-19T02:00:37.140Z,0
2017-12-19T02:01:37.741Z,0
2017-12-19T02:02:38.344Z,0
2017-12-19T02:03:38.941Z,0
2017-12-19T02:04:39.543Z,0
2017-12-19T02:05:40.135Z,0
2017-12-19T02:06:40.760Z,0
2017-12-19T02:07:41.346Z,0
2017-12-19T02:08:41.944Z,0
2017-12-19T02:09:42.550Z,0
2017-12-19T02:10:43.154Z,0
2017-12-19T02:11:43.773Z,0
2017-12-19T02:12:44.362Z,0
2017-12-19T02:13:44.952Z,0
2017-12-19T02:14:45.538Z,0
2017-12-19T02:15:46.141Z,0
2017-12-19T02:16:46.739Z,0
2017-12-19T02:17:47.333Z,0
2017-12-19T02:18:47.945Z,0
2017-12-19T02:19:48.547Z,0
2017-12-19T02:20:49.150Z,0
2017-12-19T02:21:49.759Z,0
2017-12-19T02:22:50.349Z,0
2017-12-19T02:23:50.946Z,0
2017-12-19T02:24:51.556Z,0
2017-12-19T02:25:52.160Z,0
2017-12-19T02:26:52.764Z,0
2017-12-19T02:27:53.352Z,0
2017-12-19T02:28:53.964Z,0
2017-12-19T02:29:54.566Z,0
2017-12-19T02:30:55.164Z,0
2017-12-19T02:31:55.769Z,0
2017-12-19T02:32:56.377Z,0
2017-12-19T02:33:56.986Z,0
2017-12-19T02:34:57.574Z,0
2017-12-19T02:35:58.170Z,0
2017-12-19T02:36:58.769Z,0
2017-12-19T02:37:59.373Z,0
2017-12-19T02:38:59.982Z,0
2017-12-19T02:40:00.569Z,0
2017-12-19T02:41:01.159Z,0
2017-12-19T02:42:01.764Z,0
2017-12-19T02:43:02.366Z,0
2017-12-19T02:44:02.973Z,0
2017-12-19T02:45:03.564Z,0
2017-12-19T02:46:04.172Z,0
2017-12-19T02:47:04.779Z,0
2017-12-19T02:48:05.373Z,0
2017-12-19T02:49:05.982Z,0
2017-12-19T02:50:06.585Z,0
2017-12-19T02:51:07.175Z,0
2017-12-19T02:52:07.769Z,0
2017-12-19T02:53:08.372Z,0
2017-12-19T02:54:08.980Z,0
2017-12-19T02:55:09.594Z,0
2017-12-19T02:56:10.191Z,0
2017-12-19T02:57:10.801Z,0
2017-12-19T02:58:11.415Z,0
2017-12-19T02:59:12.021Z,0
2017-12-19T03:00:12.626Z,0
2017-12-19T03:01:13.222Z,0
2017-12-19T03:02:13.812Z,0
2017-12-19T03:03:14.426Z,0
2017-12-19T03:04:15.016Z,0
2017-12-19T03:05:15.616Z,0
2017-12-19T03:06:16.204Z,0
2017-12-19T03:07:16.808Z,0
2017-12-19T03:08:17.413Z,0
2017-12-19T03:09:18.016Z,0
2017-12-19T03:10:18.634Z,0
2017-12-19T03:11:19.230Z,0
2017-12-19T03:12:19.820Z,0
2017-12-19T03:13:20.422Z,0
2017-12-19T03:14:21.019Z,0
2017-12-19T03:15:21.618Z,0
2017-12-19T03:16:22.214Z,0
2017-12-19T03:17:22.811Z,0
2017-12-19T03:18:23.411Z,0
2017-12-19T03:19:24.017Z,0
2017-12-19T03:20:24.628Z,0
2017-12-19T03:21:25.240Z,0
2017-12-19T03:22:25.831Z,0
2017-12-19T03:23:26.416Z,0
2017-12-19T03:24:27.015Z,0
2017-12-19T03:25:27.624Z,0
2017-12-19T03:26:28.223Z,0
2017-12-19T03:27:28.820Z,0
2017-12-19T03:28:29.431Z,0
2017-12-19T03:29:30.044Z,0
2017-12-19T03:30:30.634Z,0
2017-12-19T03:31:31.236Z,0
2017-12-19T03:32:31.833Z,0
2017-12-19T03:33:32.428Z,0
2017-12-19T03:34:33.036Z,0
2017-12-19T03:35:33.641Z,0
2017-12-19T03:36:34.247Z,0
2017-12-19T03:37:34.859Z,0
2017-12-19T03:38:35.455Z,0
2017-12-19T03:39:36.061Z,0
2017-12-19T03:40:36.668Z,0
2017-12-19T03:41:37.260Z,0
2017-12-19T03:42:37.870Z,0
2017-12-19T03:43:38.484Z,0
2017-12-19T03:44:39.073Z,0
2017-12-19T03:45:39.673Z,0
2017-12-19T03:46:40.272Z,0
2017-12-19T03:47:40.873Z,0
2017-12-19T03:48:41.470Z,0
2017-12-19T03:49:42.063Z,0
2017-12-19T03:50:42.657Z,0
2017-12-19T03:51:43.258Z,0
2017-12-19T03:52:43.853Z,0
2017-12-19T03:53:44.443Z,0
2017-12-19T03:54:45.051Z,0
2017-12-19T03:55:45.643Z,0
2017-12-19T03:56:46.246Z,0
2017-12-19T03:57:46.865Z,0
2017-12-19T03:58:47.459Z,0
2017-12-19T03:59:48.062Z,0
2017-12-19T04:00:48.662Z,0
2017-12-19T04:01:49.271Z,0
2017-12-19T04:02:49.867Z,0
2017-12-19T04:03:50.472Z,0
2017-12-19T04:04:51.073Z,0
2017-12-19T04:05:51.671Z,0
2017-12-19T04:06:52.282Z,0
2017-12-19T04:07:52.883Z,0
2017-12-19T04:08:53.483Z,0
2017-12-19T04:09:54.073Z,0
2017-12-19T04:10:54.667Z,0
2017-12-19T04:11:55.273Z,0
2017-12-19T04:12:55.868Z,0
2017-12-19T04:13:56.453Z,0
2017-12-19T04:14:57.043Z,0
2017-12-19T04:15:57.639Z,0
2017-12-19T04:16:58.250Z,0
2017-12-19T04:17:58.861Z,0
2017-12-19T04:18:59.474Z,0
2017-12-19T04:20:00.076Z,0
2017-12-19T04:21:00.673Z,0
2017-12-19T04:22:01.285Z,0
2017-12-19T04:23:01.884Z,0
2017-12-19T04:24:02.492Z,0
2017-12-19T04:25:03.098Z,0
2017-12-19T04:26:03.692Z,0
2017-12-19T04:27:04.296Z,0
2017-12-19T04:28:04.905Z,0
2017-12-19T04:29:05.492Z,0
2017-12-19T04:30:06.095Z,0
2017-12-19T04:31:06.703Z,0
2017-12-19T04:32:07.294Z,0
2017-12-19T04:33:07.896Z,0
2017-12-19T04:34:08.495Z,0
2017-12-19T04:35:09.082Z,0
2017-12-19T04:36:09.686Z,0
2017-12-19T04:37:10.284Z,0
2017-12-19T04:38:10.876Z,0
2017-12-19T04:39:11.487Z,0
2017-12-19T04:40:12.102Z,0
2017-12-19T04:41:12.693Z,0
2017-12-19T04:42:13.324Z,0
2017-12-19T04:43:13.912Z,0
2017-12-19T04:44:14.530Z,0
2017-12-19T04:45:15.105Z,0
2017-12-19T04:46:15.714Z,0
2017-12-19T04:47:16.551Z,0
2017-12-19T04:48:17.139Z,0
2017-12-19T04:49:17.773Z,0
2017-12-19T04:50:18.352Z,0
2017-12-19T04:51:18.987Z,0
2017-12-19T04:52:19.579Z,0
2017-12-19T04:53:20.200Z,0
2017-12-19T04:54:20.794Z,0
2017-12-19T04:55:21.392Z,0
2017-12-19T04:56:22.022Z,0
2017-12-19T04:57:22.617Z,0
2017-12-19T04:58:23.210Z,0
2017-12-19T04:59:23.809Z,0
2017-12-19T05:00:24.469Z,0
2017-12-19T05:01:25.041Z,0
2017-12-19T05:02:25.686Z,0
2017-12-19T05:03:26.267Z,0
2017-12-19T05:04:26.868Z,0
2017-12-19T05:05:27.509Z,0
2017-12-19T05:06:28.105Z,0
2017-12-19T05:07:28.679Z,0
2017-12-19T05:08:29.295Z,0
2017-12-19T05:09:29.894Z,0
2017-12-19T05:10:30.487Z,0
2017-12-19T05:11:31.103Z,0
2017-12-19T05:12:31.717Z,0
2017-12-19T05:13:32.319Z,0
2017-12-19T05:14:32.935Z,0
2017-12-19T05:15:33.545Z,0
2017-12-19T05:16:34.142Z,0
2017-12-19T05:17:34.750Z,0
2017-12-19T05:18:35.355Z,0
2017-12-19T05:19:35.941Z,0
2017-12-19T05:20:36.560Z,0
2017-12-19T05:21:37.188Z,0
2017-12-19T05:22:37.847Z,0
2017-12-19T05:23:38.401Z,0
2017-12-19T05:24:39.013Z,0
2017-12-19T05:25:39.622Z,0
2017-12-19T05:26:40.227Z,0
2017-12-19T05:27:40.843Z,0
2017-12-19T05:28:41.490Z,0
2017-12-19T05:29:42.028Z,0
2017-12-19T05:30:42.637Z,0
2017-12-19T05:31:43.248Z,0
2017-12-19T05:32:43.863Z,0
2017-12-19T05:33:44.493Z,0
2017-12-19T05:34:45.088Z,0
2017-12-19T05:35:45.695Z,0
2017-12-19T05:36:46.324Z,0
2017-12-19T05:37:46.938Z,0
2017-12-19T05:38:47.560Z,0
2017-12-19T05:39:48.134Z,0
2017-12-19T05:40:48.748Z,0
2017-12-19T05:41:49.394Z,0
2017-12-19T05:42:49.986Z,0
2017-12-19T05:43:50.585Z,0
2017-12-19T05:44:51.175Z,0
2017-12-19T05:45:51.792Z,0
2017-12-19T05:46:52.395Z,0
2017-12-19T05:47:53.024Z,0
2017-12-19T05:48:53.663Z,0
2017-12-19T05:49:54.280Z,0
2017-12-19T05:50:54.897Z,0
2017-12-19T05:51:55.501Z,0
2017-12-19T05:52:56.100Z,0
2017-12-19T05:53:56.720Z,0
2017-12-19T05:54:57.305Z,0
2017-12-19T05:55:57.928Z,0
2017-12-19T05:56:58.525Z,0
2017-12-19T05:57:59.136Z,0
2017-12-19T05:58:59.732Z,0
2017-12-19T06:00:00.322Z,0
2017-12-19T06:01:00.928Z,0
2017-12-19T06:02:01.532Z,0
2017-12-19T06:03:02.138Z,0
2017-12-19T06:04:02.736Z,0
2017-12-19T06:05:03.337Z,0
2017-12-19T06:06:03.945Z,0
2017-12-19T06:07:04.558Z,0
2017-12-19T06:08:05.201Z,0
2017-12-19T06:09:05.811Z,0
2017-12-19T06:10:06.446Z,0
2017-12-19T06:11:07.028Z,0
2017-12-19T06:12:07.645Z,0
2017-12-19T06:13:08.283Z,0
2017-12-19T06:14:08.926Z,0
2017-12-19T06:15:09.508Z,0
2017-12-19T06:16:10.108Z,0
2017-12-19T06:17:10.709Z,0
2017-12-19T06:18:11.332Z,0
2017-12-19T06:19:11.926Z,0
2017-12-19T06:20:12.500Z,0
2017-12-19T06:21:13.096Z,0
2017-12-19T06:22:13.689Z,0
2017-12-19T06:23:14.308Z,0
2017-12-19T06:24:14.895Z,0
2017-12-19T06:25:15.503Z,0
2017-12-19T06:26:16.114Z,0
2017-12-19T06:27:16.711Z,0
2017-12-19T06:28:17.308Z,0
2017-12-19T06:29:17.902Z,0
2017-12-19T06:30:18.507Z,0
2017-12-19T06:31:19.156Z,0
2017-12-19T06:32:19.772Z,0
2017-12-19T06:33:20.349Z,0
2017-12-19T06:34:20.960Z,0
2017-12-19T06:35:21.610Z,0
2017-12-19T06:36:22.197Z,0
2017-12-19T06:37:22.805Z,0
2017-12-19T06:38:23.405Z,0
2017-12-19T06:39:24.008Z,0
2017-12-19T06:40:24.595Z,0
2017-12-19T06:41:25.202Z,0
2017-12-19T06:42:25.833Z,0
2017-12-19T06:43:26.444Z,0
2017-12-19T06:44:27.030Z,0
2017-12-19T06:45:27.627Z,0
2017-12-19T06:46:28.274Z,0
2017-12-19T06:47:28.851Z,0
2017-12-19T06:48:29.452Z,0
2017-12-19T06:49:30.072Z,0
2017-12-19T06:50:30.659Z,0
2017-12-19T06:51:31.254Z,0
2017-12-19T06:52:31.863Z,0
2017-12-19T06:53:32.486Z,0
2017-12-19T06:54:33.125Z,0
2017-12-19T06:55:33.720Z,0
2017-12-19T06:56:34.320Z,0
2017-12-19T06:57:34.920Z,0
2017-12-19T06:58:35.553Z,0
2017-12-19T06:59:36.121Z,0
2017-12-19T07:00:36.719Z,0
2017-12-19T07:01:37.344Z,0
2017-12-19T07:02:37.947Z,0
2017-12-19T07:03:38.578Z,0
2017-12-19T07:04:39.203Z,0
2017-12-19T07:05:39.767Z,0
2017-12-19T07:06:40.358Z,0
2017-12-19T07:07:40.964Z,0
2017-12-19T07:08:41.562Z,0
2017-12-19T07:09:42.175Z,0
2017-12-19T07:10:42.797Z,0
2017-12-19T07:11:43.393Z,0
2017-12-19T07:12:44.018Z,0
2017-12-19T07:13:44.604Z,0
2017-12-19T07:14:45.233Z,0
2017-12-19T07:15:45.837Z,0
2017-12-19T07:16:46.428Z,0
2017-12-19T07:17:47.040Z,0
2017-12-19T07:18:47.675Z,0
2017-12-19T07:19:48.284Z,0
2017-12-19T07:20:48.874Z,0
2017-12-19T07:21:49.482Z,0
2017-12-19T07:22:50.078Z,0
2017-12-19T07:23:50.692Z,0
2017-12-19T07:24:51.323Z,5
2017-12-19T07:25:51.944Z,5
2017-12-19T07:26:52.563Z,5
2017-12-19T07:27:53.130Z,5
2017-12-19T07:28:53.742Z,5
2017-12-19T07:29:54.348Z,5
2017-12-19T07:30:54.939Z,5
2017-12-19T07:31:55.539Z,5
2017-12-19T07:32:56.154Z,5
2017-12-19T07:33:56.811Z,10
2017-12-19T07:34:57.410Z,10
2017-12-19T07:35:58.004Z,10
2017-12-19T07:36:58.613Z,10
2017-12-19T07:37:59.211Z,10
2017-12-19T07:38:59.810Z,10
2017-12-19T07:40:00.415Z,15
2017-12-19T07:41:01.014Z,15
2017-12-19T07:42:01.646Z,15
2017-12-19T07:43:02.351Z,15
2017-12-19T07:44:02.887Z,15
2017-12-19T07:45:03.479Z,15
2017-12-19T07:46:04.126Z,15
2017-12-19T07:47:04.711Z,20
2017-12-19T07:48:05.344Z,20
2017-12-19T07:49:05.960Z,20
2017-12-19T07:50:06.643Z,20
2017-12-19T07:51:07.217Z,20
2017-12-19T07:52:07.849Z,20
2017-12-19T07:53:08.422Z,20
2017-12-19T07:54:09.016Z,20
2017-12-19T07:55:09.614Z,20
2017-12-19T07:56:10.209Z,25
2017-12-19T07:57:10.846Z,25
2017-12-19T07:58:11.417Z,25
2017-12-19T07:59:12.023Z,30
2017-12-19T08:00:12.621Z,30
2017-12-19T08:01:13.225Z,30
2017-12-19T08:02:13.867Z,30
2017-12-19T08:03:14.469Z,35
2017-12-19T08:04:15.061Z,35
2017-12-19T08:05:15.699Z,35
2017-12-19T08:06:16.294Z,35
2017-12-19T08:07:16.883Z,40
2017-12-19T08:08:17.495Z,40
2017-12-19T08:09:18.133Z,45
2017-12-19T08:10:18.713Z,45
2017-12-19T08:11:19.317Z,45
2017-12-19T08:12:19.930Z,45
2017-12-19T08:13:20.533Z,45
2017-12-19T08:14:21.161Z,45
2017-12-19T08:15:21.751Z,50
2017-12-19T08:16:22.363Z,50
2017-12-19T08:17:22.972Z,55
2017-12-19T08:18:23.610Z,60
2017-12-19T08:19:24.191Z,60
2017-12-19T08:20:24.782Z,65
2017-12-19T08:21:25.386Z,65
2017-12-19T08:22:26.016Z,70
2017-12-19T08:23:26.628Z,75
2017-12-19T08:24:27.241Z,85
2017-12-19T08:25:27.853Z,85
2017-12-19T08:26:28.457Z,80
2017-12-19T08:27:29.056Z,85
2017-12-19T08:28:29.660Z,90
2017-12-19T08:29:30.269Z,85
2017-12-19T08:30:30.873Z,85
2017-12-19T08:31:31.488Z,85
2017-12-19T08:32:32.139Z,80
2017-12-19T08:33:32.716Z,75
2017-12-19T08:34:33.317Z,75
2017-12-19T08:35:33.939Z,80
2017-12-19T08:36:34.582Z,80
2017-12-19T08:37:35.168Z,75
2017-12-19T08:38:35.795Z,75
2017-12-19T08:39:36.392Z,75
2017-12-19T08:40:37.013Z,75
2017-12-19T08:41:37.606Z,80
2017-12-19T08:42:38.232Z,80
2017-12-19T08:43:38.838Z,85
2017-12-19T08:44:39.461Z,90
2017-12-19T08:45:40.081Z,90
2017-12-19T08:46:40.706Z,85
2017-12-19T08:47:41.310Z,85
2017-12-19T08:48:41.904Z,85
2017-12-19T08:49:42.512Z,90
2017-12-19T08:50:43.116Z,95
2017-12-19T08:51:43.720Z,95
2017-12-19T08:52:44.336Z,95
2017-12-19T08:53:44.955Z,105
2017-12-19T08:54:45.568Z,120
2017-12-19T08:55:46.179Z,120
2017-12-19T08:56:46.801Z,110
2017-12-19T08:57:47.408Z,110
2017-12-19T08:58:48.017Z,120
2017-12-19T08:59:48.629Z,130
2017-12-19T09:00:49.256Z,130
2017-12-19T09:01:49.853Z,115
2017-12-19T09:02:50.456Z,105
2017-12-19T09:03:51.068Z,100
2017-12-19T09:04:51.702Z,105
2017-12-19T09:05:52.312Z,105
2017-12-19T09:06:52.911Z,110
2017-12-19T09:07:53.529Z,120
2017-12-19T09:08:54.150Z,120
2017-12-19T09:09:54.762Z,125
2017-12-19T09:10:55.401Z,115
2017-12-19T09:11:56.013Z,105
2017-12-19T09:12:56.632Z,100
2017-12-19T09:13:57.388Z,90
2017-12-19T09:14:57.987Z,85
2017-12-19T09:15:58.618Z,80
2017-12-19T09:16:59.242Z,80
2017-12-19T09:17:59.855Z,85
2017-12-19T09:19:00.475Z,90
2017-12-19T09:20:02.271Z,95
2017-12-19T09:21:02.903Z,100
2017-12-19T09:22:03.573Z,105
2017-12-19T09:23:04.150Z,115
2017-12-19T09:24:04.809Z,130
2017-12-19T09:25:05.403Z,140
2017-12-19T09:26:06.021Z,135
2017-12-19T09:27:06.636Z,125
2017-12-19T09:28:07.244Z,120
2017-12-19T09:29:07.865Z,125
2017-12-19T09:30:08.524Z,130
2017-12-19T09:31:09.112Z,130
2017-12-19T09:32:09.744Z,130
2017-12-19T09:33:10.347Z,130
2017-12-19T09:34:10.975Z,120
2017-12-19T09:35:11.572Z,115
2017-12-19T09:36:12.191Z,115
2017-12-19T09:37:12.810Z,115
2017-12-19T09:38:16.118Z,120
2017-12-19T09:39:16.744Z,135
2017-12-19T09:40:17.377Z,145
2017-12-19T09:41:18.026Z,155
2017-12-19T09:42:18.610Z,170
2017-12-19T09:43:19.255Z,180
2017-12-19T09:44:19.870Z,185
2017-12-19T09:45:20.507Z,205
2017-12-19T09:46:21.095Z,195
2017-12-19T09:47:21.714Z,180
2017-12-19T09:48:22.351Z,190
2017-12-19T09:49:22.941Z,205
2017-12-19T09:50:23.567Z,215
2017-12-19T09:51:24.192Z,225
2017-12-19T09:52:24.833Z,215
2017-12-19T09:53:25.434Z,200
2017-12-19T09:54:26.073Z,170
2017-12-19T09:55:26.673Z,160
2017-12-19T09:56:27.299Z,160
2017-12-19T09:57:27.907Z,165
2017-12-19T09:58:28.520Z,185
2017-12-19T09:59:29.141Z,190
2017-12-19T10:00:29.768Z,165
2017-12-19T10:01:30.417Z,150
2017-12-19T10:02:31.015Z,145
2017-12-19T10:03:31.654Z,140
2017-12-19T10:04:32.297Z,140
2017-12-19T10:05:32.887Z,150
2017-12-19T10:06:33.509Z,175
2017-12-19T10:07:34.135Z,205
2017-12-19T10:08:34.755Z,235
2017-12-19T10:09:35.395Z,225
2017-12-19T10:10:36.030Z,175
2017-12-19T10:11:36.642Z,165
2017-12-19T10:12:37.256Z,160
2017-12-19T10:13:37.855Z,160
2017-12-19T10:14:38.466Z,150
2017-12-19T10:15:39.101Z,135
2017-12-19T10:16:39.689Z,125
2017-12-19T10:17:40.332Z,135
2017-12-19T10:18:40.956Z,165
2017-12-19T10:19:41.571Z,190
2017-12-19T10:20:42.188Z,195
2017-12-19T10:21:46.557Z,180
2017-12-19T10:22:47.183Z,160
2017-12-19T10:23:47.796Z,150
2017-12-19T10:24:48.422Z,155
2017-12-19T10:25:49.032Z,155
2017-12-19T10:26:49.639Z,170
2017-12-19T10:27:50.275Z,160
2017-12-19T10:28:50.915Z,140
2017-12-19T10:29:51.522Z,140
2017-12-19T10:30:52.110Z,145
2017-12-19T10:31:52.741Z,190
2017-12-19T10:32:53.356Z,205
2017-12-19T10:33:53.978Z,210
2017-12-19T10:34:54.589Z,175
2017-12-19T10:35:55.198Z,165
2017-12-19T10:36:55.841Z,190
2017-12-19T10:37:56.470Z,205
2017-12-19T10:38:57.069Z,205
2017-12-19T10:39:57.726Z,200
2017-12-19T10:40:58.328Z,195
2017-12-19T10:41:58.957Z,180
2017-12-19T10:42:59.553Z,180
2017-12-19T10:44:00.148Z,195
2017-12-19T10:45:00.789Z,215
2017-12-19T10:46:01.380Z,210
2017-12-19T10:47:02.002Z,200
2017-12-19T10:48:02.666Z,185
2017-12-19T10:49:03.205Z,195
2017-12-19T10:50:03.818Z,195
2017-12-19T10:51:04.436Z,185
2017-12-19T10:52:05.047Z,175
2017-12-19T10:53:05.649Z,160
2017-12-19T10:54:06.266Z,150
2017-12-19T10:55:06.895Z,160
2017-12-19T10:56:07.519Z,160
2017-12-19T10:57:08.132Z,160
2017-12-19T10:58:08.743Z,175
2017-12-19T10:59:09.342Z,190
2017-12-19T11:00:09.949Z,215
2017-12-19T11:01:10.606Z,190
2017-12-19T11:02:11.206Z,190
2017-12-19T11:03:11.818Z,215
2017-12-19T11:04:12.437Z,240
2017-12-19T11:05:13.121Z,245
2017-12-19T11:06:13.741Z,235
2017-12-19T11:07:14.336Z,205
2017-12-19T11:08:14.947Z,190
2017-12-19T11:09:15.559Z,190
2017-12-19T11:10:16.209Z,205
2017-12-19T11:11:16.826Z,215
2017-12-19T11:12:17.495Z,235
2017-12-19T11:13:18.092Z,235
2017-12-19T11:14:18.697Z,220
2017-12-19T11:15:19.305Z,240
2017-12-19T11:16:20.078Z,245
2017-12-19T11:17:20.708Z,235
2017-12-19T11:18:21.322Z,240
2017-12-19T11:19:21.953Z,215
2017-12-19T11:20:22.583Z,215
2017-12-19T11:21:23.183Z,245
2017-12-19T11:22:23.812Z,250
2017-12-19T11:23:24.448Z,225
2017-12-19T11:24:25.080Z,230
2017-12-19T11:25:25.691Z,240
2017-12-19T11:26:26.335Z,255
2017-12-19T11:27:26.972Z,255
2017-12-19T11:28:27.614Z,255
2017-12-19T11:29:28.231Z,290
2017-12-19T11:30:28.863Z,310
2017-12-19T11:31:29.510Z,310
2017-12-19T11:32:30.130Z,290
2017-12-19T11:33:30.774Z,270
2017-12-19T11:34:31.381Z,280
2017-12-19T11:35:32.020Z,285
2017-12-19T11:36:32.678Z,270
2017-12-19T11:37:33.351Z,275
2017-12-19T11:38:33.992Z,290
2017-12-19T11:39:34.627Z,290
2017-12-19T11:40:35.456Z,325
2017-12-19T11:41:36.106Z,330
2017-12-19T11:42:36.715Z,325
2017-12-19T11:43:37.336Z,350
2017-12-19T11:44:37.940Z,390
2017-12-19T11:45:38.557Z,440
2017-12-19T11:46:39.189Z,400
2017-12-19T11:47:39.841Z,365
2017-12-19T11:48:40.489Z,345
2017-12-19T11:49:41.078Z,315
2017-12-19T11:50:41.756Z,285
2017-12-19T11:51:42.351Z,240
2017-12-19T11:52:43.016Z,240
2017-12-19T11:53:43.660Z,220
2017-12-19T11:54:44.525Z,180
2017-12-19T11:55:45.193Z,190
2017-12-19T11:56:45.836Z,240
2017-12-19T11:57:46.457Z,285
2017-12-19T11:58:47.096Z,290
2017-12-19T11:59:47.762Z,310
2017-12-19T12:00:48.356Z,310
2017-12-19T12:01:49.017Z,300
2017-12-19T12:02:49.649Z,335
2017-12-19T12:03:50.289Z,350
2017-12-19T12:04:51.895Z,330
2017-12-19T12:05:52.534Z,310
2017-12-19T12:06:53.158Z,295
2017-12-19T12:07:53.775Z,225
2017-12-19T12:08:54.409Z,195
2017-12-19T12:09:55.026Z,205
2017-12-19T12:10:55.713Z,220
2017-12-19T12:11:56.302Z,210
2017-12-19T12:12:56.973Z,220
2017-12-19T12:13:57.588Z,215
2017-12-19T12:14:58.317Z,195
2017-12-19T12:15:58.869Z,210
2017-12-19T12:16:59.500Z,200
2017-12-19T12:18:00.159Z,215
2017-12-19T12:19:00.800Z,225
2017-12-19T12:20:01.428Z,220
2017-12-19T12:21:02.256Z,185
2017-12-19T12:22:02.885Z,170
2017-12-19T12:23:03.523Z,185
2017-12-19T12:24:04.173Z,210
2017-12-19T12:25:04.762Z,230
2017-12-19T12:26:05.457Z,215
2017-12-19T12:27:06.101Z,205
2017-12-19T12:28:06.745Z,220
2017-12-19T12:29:07.561Z,260
2017-12-19T12:30:08.187Z,245
2017-12-19T12:31:08.834Z,240
2017-12-19T12:32:09.449Z,240
2017-12-19T12:33:10.073Z,260
2017-12-19T12:34:10.702Z,255
2017-12-19T12:35:11.326Z,245
2017-12-19T12:36:12.203Z,235
2017-12-19T12:37:12.977Z,250
2017-12-19T12:38:13.603Z,235
2017-12-19T12:39:14.220Z,225
2017-12-19T12:40:14.880Z,235
2017-12-19T12:41:15.568Z,245
2017-12-19T12:42:16.167Z,225
2017-12-19T12:43:16.799Z,205
2017-12-19T12:44:17.418Z,240
2017-12-19T12:45:18.027Z,255
2017-12-19T12:46:18.706Z,275
2017-12-19T12:47:19.306Z,270
2017-12-19T12:48:19.919Z,265
2017-12-19T12:49:20.519Z,260
2017-12-19T12:50:21.153Z,260
2017-12-19T12:51:21.783Z,260
2017-12-19T12:52:22.406Z,250
2017-12-19T12:53:23.039Z,245
2017-12-19T12:54:23.647Z,215
2017-12-19T12:55:24.261Z,185
2017-12-19T12:56:24.864Z,160
2017-12-19T12:57:25.472Z,140
2017-12-19T12:58:26.296Z,160
2017-12-19T12:59:26.930Z,195
2017-12-19T13:00:27.560Z,225
2017-12-19T13:01:28.210Z,250
2017-12-19T13:02:28.846Z,270
2017-12-19T13:03:29.486Z,330
2017-12-19T13:04:30.147Z,380
2017-12-19T13:05:30.734Z,330
2017-12-19T13:06:31.371Z,365
2017-12-19T13:07:31.994Z,325
2017-12-19T13:08:32.624Z,320
2017-12-19T13:09:33.251Z,305
2017-12-19T13:10:33.886Z,280
2017-12-19T13:11:34.523Z,265
2017-12-19T13:12:35.145Z,260
2017-12-19T13:13:35.824Z,290
2017-12-19T13:14:36.354Z,295
2017-12-19T13:15:36.979Z,275
2017-12-19T13:16:38.573Z,275
2017-12-19T13:17:39.228Z,280
2017-12-19T13:18:39.841Z,295
2017-12-19T13:19:40.482Z,295
2017-12-19T13:20:41.113Z,275
2017-12-19T13:21:41.736Z,260
2017-12-19T13:22:42.332Z,245
2017-12-19T13:23:42.936Z,240
2017-12-19T13:24:43.588Z,240
2017-12-19T13:25:44.371Z,245
2017-12-19T13:26:45.051Z,250
2017-12-19T13:27:45.633Z,250
2017-12-19T13:28:46.262Z,245
2017-12-19T13:29:46.885Z,240
2017-12-19T13:30:47.513Z,245
2017-12-19T13:31:48.182Z,240
2017-12-19T13:32:48.805Z,225
2017-12-19T13:33:49.427Z,220
2017-12-19T13:34:50.061Z,215
2017-12-19T13:35:50.935Z,195
2017-12-19T13:36:51.571Z,195
2017-12-19T13:37:52.211Z,200
2017-12-19T13:38:53.081Z,190
2017-12-19T13:39:53.700Z,185
2017-12-19T13:40:54.340Z,190
2017-12-19T13:41:54.977Z,180
2017-12-19T13:42:55.601Z,185
2017-12-19T13:43:56.212Z,195
2017-12-19T13:44:56.833Z,195
2017-12-19T13:45:57.460Z,195
2017-12-19T13:46:58.104Z,190
2017-12-19T13:47:58.717Z,210
2017-12-19T13:48:59.344Z,215
2017-12-19T13:49:59.984Z,210
2017-12-19T13:51:00.620Z,200
2017-12-19T13:52:01.248Z,195
2017-12-19T13:53:01.870Z,190
2017-12-19T13:54:02.480Z,195
2017-12-19T13:55:03.087Z,210
2017-12-19T13:56:03.719Z,230
2017-12-19T13:57:04.361Z,230
2017-12-19T13:58:05.011Z,230
2017-12-19T13:59:05.607Z,215
2017-12-19T14:00:06.242Z,190
2017-12-19T14:01:06.866Z,180
2017-12-19T14:02:07.483Z,175
2017-12-19T14:03:08.136Z,180
2017-12-19T14:04:08.735Z,175
2017-12-19T14:05:09.356Z,180
2017-12-19T14:06:09.988Z,185
2017-12-19T14:07:10.600Z,190
2017-12-19T14:08:11.220Z,190
2017-12-19T14:09:11.827Z,195
2017-12-19T14:10:12.434Z,185
2017-12-19T14:11:13.103Z,180
2017-12-19T14:12:13.706Z,185
2017-12-19T14:13:14.322Z,185
2017-12-19T14:14:14.969Z,180
2017-12-19T14:15:15.557Z,165
2017-12-19T14:16:16.178Z,155
2017-12-19T14:17:16.769Z,135
2017-12-19T14:18:17.379Z,125
2017-12-19T14:19:18.037Z,120
2017-12-19T14:20:18.636Z,120
2017-12-19T14:21:19.323Z,120
2017-12-19T14:22:19.925Z,115
2017-12-19T14:23:20.512Z,115
2017-12-19T14:24:21.122Z,110
2017-12-19T14:25:21.756Z,105
2017-12-19T14:26:22.392Z,100
2017-12-19T14:27:23.024Z,95
2017-12-19T14:28:23.643Z,90
2017-12-19T14:29:24.265Z,90